Time,TemperatureF,DewpointF,PressureIn,WindDirection,WindDirectionDegrees,WindSpeedMPH,WindSpeedGustMPH,Humidity,HourlyPrecipIn,Conditions,Clouds,dailyrainin,SoftwareType,DateUTC
2013-09-14 00:00:00,57.8,56.0,-100.00,North,355,1.6,9.6,93,0.00,,,-99.99,HOBO +U30 +Weather +,2013-09-14 04:00:00,
2013-09-14 00:15:00,57.3,55.6,-100.00,North,1,2.0,6.7,94,0.00,,,-99.99,HOBO +U30 +Weather +,2013-09-14 04:15:00,
2013-09-14 00:32:00,57.1,55.3,-100.00,North,352,2.5,7.8,93,0.00,,,-99.99,HOBO +U30 +Weather +,2013-09-14 04:32:00,
2013-09-14 00:45:00,56.7,55.0,-100.00,NNW,330,1.6,6.7,93,0.00,,,-99.99,HOBO +U30 +Weather +,2013-09-14 04:45:00,
2013-09-14 01:00:00,56.5,54.8,-100.00,NNW,337,2.0,7.2,94,0.00,,,-99.99,HOBO +U30 +Weather +,2013-09-14 05:00:00,
2013-09-14 01:15:00,56.4,54.8,-100.00,NNW,336,2.0,5.8,94,0.00,,,-99.99,HOBO +U30 +Weather +,2013-09-14 05:15:00,
2013-09-14 01:32:00,56.0,54.6,-100.00,NNW,338,1.3,4.9,94,0.00,,,-99.99,HOBO +U30 +Weather +,2013-09-14 05:32:00,
2013-09-14 01:45:00,55.7,54.1,-100.00,WNW,302,1.3,5.8,94,0.00,,,-99.99,HOBO +U30 +Weather +,2013-09-14 05:45:00,
2013-09-14 02:00:00,55.5,53.9,-100.00,NNW,347,1.6,9.2,94,0.00,,,-99.99,HOBO +U30 +Weather +,2013-09-14 06:00:00,
2013-09-14 02:15:00,55.7,54.0,-100.00,NW,319,1.6,6.3,93,0.00,,,-99.99,HOBO +U30 +Weather +,2013-09-14 06:15:00,
2013-09-14 02:31:00,55.5,53.9,-100.00,NNW,345,1.3,4.5,94,0.00,,,-99.99,HOBO +U30 +Weather +,2013-09-14 06:31:00,
2013-09-14 02:45:00,55.6,54.0,-100.00,NW,324,1.6,5.8,94,0.00,,,-99.99,HOBO +U30 +Weather +,2013-09-14 06:45:00,
2013-09-14 03:00:00,54.9,53.4,-100.00,NNW,341,1.6,6.7,94,0.00,,,-99.99,HOBO +U30 +Weather +,2013-09-14 07:00:00,
2013-09-14 03:15:00,54.7,53.3,-100.00,NNW,343,1.6,5.8,94,0.00,,,-99.99,HOBO +U30 +Weather +,2013-09-14 07:15:00,
2013-09-14 03:32:00,54.6,53.3,-100.00,North,354,1.3,5.4,95,0.00,,,-99.99,HOBO +U30 +Weather +,2013-09-14 07:32:00,
2013-09-14 03:45:00,54.2,53.0,-100.00,North,354,1.6,5.4,95,0.00,,,-99.99,HOBO +U30 +Weather +,2013-09-14 07:45:00,
2013-09-14 04:00:00,53.6,52.4,-100.00,NNW,344,1.3,4.5,95,0.00,,,-99.99,HOBO +U30 +Weather +,2013-09-14 08:00:00,
2013-09-14 04:15:00,53.1,52.0,-100.00,NW,309,1.6,5.8,95,0.00,,,-99.99,HOBO +U30 +Weather +,2013-09-14 08:15:00,
2013-09-14 04:31:00,52.6,51.6,-100.00,North,354,1.6,4.9,96,0.00,,,-99.99,HOBO +U30 +Weather +,2013-09-14 08:31:00,
2013-09-14 04:45:00,51.9,51.1,-100.00,NNW,345,1.3,5.4,96,0.00,,,-99.99,HOBO +U30 +Weather +,2013-09-14 08:45:00,
2013-09-14 05:00:00,51.5,50.7,-100.00,North,351,0.9,4.3,97,0.00,,,-99.99,HOBO +U30 +Weather +,2013-09-14 09:00:00,
2013-09-14 05:15:00,51.4,50.7,-100.00,NNW,337,0.9,5.4,97,0.00,,,-99.99,HOBO +U30 +Weather +,2013-09-14 09:15:00,
2013-09-14 05:30:00,51.2,50.5,-100.00,North,350,0.9,4.5,97,0.00,,,-99.99,HOBO +U30 +Weather +,2013-09-14 09:30:00,
2013-09-14 05:45:00,51.2,50.5,-100.00,North,3,0.9,3.8,97,0.00,,,-99.99,HOBO +U30 +Weather +,2013-09-14 09:45:00,
2013-09-14 06:00:00,50.9,50.2,-100.00,North,354,0.9,4.9,97,0.00,,,-99.99,HOBO +U30 +Weather +,2013-09-14 10:00:00,
2013-09-14 06:15:00,50.5,50.0,-100.00,NNW,347,0.0,0.0,97,0.00,,,-99.99,HOBO +U30 +Weather +,2013-09-14 10:15:00,
2013-09-14 06:30:00,50.8,50.2,-100.00,NNW,345,0.0,0.0,97,0.00,,,-99.99,HOBO +U30 +Weather +,2013-09-14 10:30:00,
2013-09-14 06:45:00,50.5,49.9,-100.00,NNW,340,0.0,0.0,97,0.00,,,-99.99,HOBO +U30 +Weather +,2013-09-14 10:45:00,
2013-09-14 07:00:00,51.0,50.4,-100.00,NNW,343,0.0,0.0,97,0.00,,,-99.99,HOBO +U30 +Weather +,2013-09-14 11:00:00,
2013-09-14 07:15:00,51.7,50.9,-100.00,NNW,348,0.9,7.4,96,0.00,,,-99.99,HOBO +U30 +Weather +,2013-09-14 11:15:00,
2013-09-14 07:30:00,52.3,51.3,-100.00,NNW,347,1.6,5.4,96,0.00,,,-99.99,HOBO +U30 +Weather +,2013-09-14 11:30:00,
2013-09-14 07:45:00,52.9,51.7,-100.00,NNW,334,2.5,6.7,95,0.00,,,-99.99,HOBO +U30 +Weather +,2013-09-14 11:45:00,
2013-09-14 08:00:00,53.6,52.3,-100.00,NNW,329,3.4,7.8,95,0.00,,,-99.99,HOBO +U30 +Weather +,2013-09-14 12:00:00,
2013-09-14 08:15:00,54.2,52.8,-100.00,NNW,334,3.4,9.2,94,0.00,,,-99.99,HOBO +U30 +Weather +,2013-09-14 12:15:00,
2013-09-14 08:31:00,55.1,53.5,-100.00,NNW,344,2.9,9.6,94,0.00,,,-99.99,HOBO +U30 +Weather +,2013-09-14 12:31:00,
2013-09-14 08:45:00,56.3,54.4,-100.00,NNW,331,2.9,5.8,93,0.00,,,-99.99,HOBO +U30 +Weather +,2013-09-14 12:45:00,
2013-09-14 09:00:00,56.8,54.7,-100.00,NNW,330,3.4,7.8,92,0.00,,,-99.99,HOBO +U30 +Weather +,2013-09-14 13:00:00,
2013-09-14 09:15:00,59.0,56.6,-100.00,NNW,338,2.5,6.7,91,0.00,,,-99.99,HOBO +U30 +Weather +,2013-09-14 13:15:00,
2013-09-14 09:30:00,59.7,56.8,-100.00,NNW,347,1.6,7.8,89,0.00,,,-99.99,HOBO +U30 +Weather +,2013-09-14 13:30:00,
2013-09-14 09:45:00,60.0,56.9,-100.00,NNW,343,2.9,6.3,89,0.00,,,-99.99,HOBO +U30 +Weather +,2013-09-14 13:45:00,
2013-09-14 10:00:00,60.0,57.0,-100.00,NNW,337,2.0,7.2,89,0.00,,,-99.99,HOBO +U30 +Weather +,2013-09-14 14:00:00,
2013-09-14 10:15:00,60.0,57.2,-100.00,NW,326,2.9,8.7,90,0.00,,,-99.99,HOBO +U30 +Weather +,2013-09-14 14:15:00,
2013-09-14 10:30:00,59.8,56.4,-100.00,North,355,2.5,7.8,88,0.00,,,-99.99,HOBO +U30 +Weather +,2013-09-14 14:30:00,
2013-09-14 10:45:00,60.4,57.6,-100.00,North,350,2.0,6.7,90,0.00,,,-99.99,HOBO +U30 +Weather +,2013-09-14 14:45:00,
2013-09-14 11:00:00,63.6,59.3,-100.00,NNW,337,2.9,9.6,85,0.00,,,-99.99,HOBO +U30 +Weather +,2013-09-14 15:00:00,
2013-09-14 11:15:00,64.5,60.2,-100.00,NNW,327,3.8,11.6,85,0.00,,,-99.99,HOBO +U30 +Weather +,2013-09-14 15:15:00,
2013-09-14 11:30:00,62.6,58.2,-100.00,NNW,333,3.8,8.7,85,0.00,,,-99.99,HOBO +U30 +Weather +,2013-09-14 15:30:00,
2013-09-14 11:50:00,64.0,59.3,-100.00,NW,312,3.4,10.1,84,0.00,,,-99.99,HOBO +U30 +Weather +,2013-09-14 15:50:00,
2013-09-14 12:00:00,65.0,60.5,-100.00,North,4,2.9,10.3,85,0.00,,,-99.99,HOBO +U30 +Weather +,2013-09-14 16:00:00,
2013-09-14 12:15:00,66.6,61.2,-100.00,North,1,2.0,6.3,82,0.00,,,-99.99,HOBO +U30 +Weather +,2013-09-14 16:15:00,
2013-09-14 12:30:00,69.8,64.4,-100.00,NNE,32,2.5,7.8,82,0.00,,,-99.99,HOBO +U30 +Weather +,2013-09-14 16:30:00,
2013-09-14 12:50:00,71.4,63.3,-100.00,NNW,331,3.4,8.7,75,0.00,,,-99.99,HOBO +U30 +Weather +,2013-09-14 16:50:00,
2013-09-14 13:00:00,67.6,61.3,-100.00,NNW,348,2.5,7.8,80,0.00,,,-99.99,HOBO +U30 +Weather +,2013-09-14 17:00:00,
2013-09-14 13:15:00,76.7,68.7,-100.00,North,3,2.5,8.3,76,0.00,,,-99.99,HOBO +U30 +Weather +,2013-09-14 17:15:00,
2013-09-14 13:30:00,68.6,61.5,-100.00,NNW,334,2.5,7.8,77,0.00,,,-99.99,HOBO +U30 +Weather +,2013-09-14 17:30:00,
2013-09-14 13:50:00,68.5,61.9,-100.00,NNW,330,2.9,8.7,79,0.00,,,-99.99,HOBO +U30 +Weather +,2013-09-14 17:50:00,
2013-09-14 14:00:00,67.7,62.0,-100.00,NNE,18,1.6,5.4,81,0.00,,,-99.99,HOBO +U30 +Weather +,2013-09-14 18:00:00,
2013-09-14 14:15:00,71.5,64.8,-100.00,NW,320,2.5,6.7,79,0.00,,,-99.99,HOBO +U30 +Weather +,2013-09-14 18:15:00,
2013-09-14 14:30:00,73.2,64.6,-100.00,NW,320,3.4,8.3,74,0.00,,,-99.99,HOBO +U30 +Weather +,2013-09-14 18:30:00,
2013-09-14 14:50:00,68.0,58.3,-100.00,NW,314,2.9,7.2,71,0.00,,,-99.99,HOBO +U30 +Weather +,2013-09-14 18:50:00,
2013-09-14 15:00:00,66.5,56.4,-100.00,NNW,333,2.9,7.2,70,0.00,,,-99.99,HOBO +U30 +Weather +,2013-09-14 19:00:00,
2013-09-14 15:15:00,69.3,60.1,-100.00,NNW,348,2.0,5.8,72,0.00,,,-99.99,HOBO +U30 +Weather +,2013-09-14 19:15:00,
2013-09-14 15:30:00,67.7,55.9,-100.00,NNW,329,2.9,8.3,65,0.00,,,-99.99,HOBO +U30 +Weather +,2013-09-14 19:30:00,
2013-09-14 15:50:00,75.1,60.5,-100.00,NNW,330,2.0,7.2,60,0.00,,,-99.99,HOBO +U30 +Weather +,2013-09-14 19:50:00,
2013-09-14 16:00:00,73.9,57.7,-100.00,NNW,330,2.9,9.6,56,0.00,,,-99.99,HOBO +U30 +Weather +,2013-09-14 20:00:00,
2013-09-14 16:15:00,74.9,58.7,-100.00,NW,326,2.9,7.2,57,0.00,,,-99.99,HOBO +U30 +Weather +,2013-09-14 20:15:00,
2013-09-14 16:30:00,75.1,59.1,-100.00,North,354,2.5,7.2,57,0.00,,,-99.99,HOBO +U30 +Weather +,2013-09-14 20:30:00,
2013-09-14 16:50:00,71.9,56.0,-100.00,North,354,2.9,7.4,57,0.00,,,-99.99,HOBO +U30 +Weather +,2013-09-14 20:50:00,
2013-09-14 17:00:00,70.5,56.8,-100.00,North,7,2.0,7.8,61,0.00,,,-99.99,HOBO +U30 +Weather +,2013-09-14 21:00:00,
2013-09-14 17:15:00,70.6,55.4,-100.00,NNW,336,2.9,9.6,58,0.00,,,-99.99,HOBO +U30 +Weather +,2013-09-14 21:15:00,
2013-09-14 17:30:00,62.7,52.7,-100.00,NNW,338,2.0,7.2,69,0.00,,,-99.99,HOBO +U30 +Weather +,2013-09-14 21:30:00,
2013-09-14 17:50:00,61.2,53.3,-100.00,NNE,18,1.3,4.5,75,0.00,,,-99.99,HOBO +U30 +Weather +,2013-09-14 21:50:00,
2013-09-14 18:00:00,61.1,53.8,-100.00,North,351,0.4,3.4,76,0.00,,,-99.99,HOBO +U30 +Weather +,2013-09-14 22:00:00,
2013-09-14 18:15:00,60.3,54.2,-100.00,North,7,0.0,0.0,80,0.00,,,-99.99,HOBO +U30 +Weather +,2013-09-14 22:15:00,
2013-09-14 18:30:00,59.7,53.6,-100.00,SE,128,0.0,0.0,80,0.00,,,-99.99,HOBO +U30 +Weather +,2013-09-14 22:30:00,
2013-09-14 18:50:00,59.1,53.2,-100.00,SE,138,0.0,0.0,80,0.00,,,-99.99,HOBO +U30 +Weather +,2013-09-14 22:50:00,
2013-09-14 19:00:00,59.0,53.4,-100.00,NE,34,0.4,5.4,81,0.00,,,-99.99,HOBO +U30 +Weather +,2013-09-14 23:00:00,
2013-09-14 19:15:00,58.7,53.0,-100.00,NNW,343,1.6,5.8,81,0.00,,,-99.99,HOBO +U30 +Weather +,2013-09-14 23:15:00,
2013-09-14 19:30:00,58.3,53.2,-100.00,NNE,28,0.9,4.3,83,0.00,,,-99.99,HOBO +U30 +Weather +,2013-09-14 23:30:00,
2013-09-14 19:45:00,58.0,52.8,-100.00,North,350,1.3,4.5,82,0.00,,,-99.99,HOBO +U30 +Weather +,2013-09-14 23:45:00,
2013-09-14 20:00:00,57.1,52.6,-100.00,North,354,1.3,5.4,84,0.00,,,-99.99,HOBO +U30 +Weather +,2013-09-15 00:00:00,
2013-09-14 20:15:00,56.3,52.4,-100.00,NNW,327,1.3,5.8,86,0.00,,,-99.99,HOBO +U30 +Weather +,2013-09-15 00:15:00,
2013-09-14 20:30:00,54.7,51.2,-100.00,North,350,0.9,5.4,88,0.00,,,-99.99,HOBO +U30 +Weather +,2013-09-15 00:30:00,
2013-09-14 20:45:00,54.1,50.9,-100.00,NNW,343,0.9,4.9,88,0.00,,,-99.99,HOBO +U30 +Weather +,2013-09-15 00:45:00,
2013-09-14 21:00:00,53.3,50.4,-100.00,North,350,0.0,2.5,89,0.00,,,-99.99,HOBO +U30 +Weather +,2013-09-15 01:00:00,
2013-09-14 21:15:00,53.3,50.4,-100.00,NNW,334,0.9,5.8,89,0.00,,,-99.99,HOBO +U30 +Weather +,2013-09-15 01:15:00,
2013-09-14 21:30:00,53.3,50.6,-100.00,NW,326,1.3,4.3,90,0.00,,,-99.99,HOBO +U30 +Weather +,2013-09-15 01:30:00,
2013-09-14 21:45:00,53.6,50.7,-100.00,NW,324,2.5,7.2,89,0.00,,,-99.99,HOBO +U30 +Weather +,2013-09-15 01:45:00,
2013-09-14 22:00:00,53.5,50.8,-100.00,NW,321,2.5,7.8,90,0.00,,,-99.99,HOBO +U30 +Weather +,2013-09-15 02:00:00,
2013-09-14 22:15:00,52.5,50.3,-100.00,NNW,336,1.6,4.9,92,0.00,,,-99.99,HOBO +U30 +Weather +,2013-09-15 02:15:00,
2013-09-14 22:30:00,51.6,49.9,-100.00,NNW,340,0.4,2.9,93,0.00,,,-99.99,HOBO +U30 +Weather +,2013-09-15 02:30:00,
2013-09-14 22:45:00,50.9,49.4,-100.00,NW,317,0.0,2.5,94,0.00,,,-99.99,HOBO +U30 +Weather +,2013-09-15 02:45:00,
2013-09-14 23:00:00,51.2,49.7,-100.00,NNW,330,0.4,2.5,94,0.00,,,-99.99,HOBO +U30 +Weather +,2013-09-15 03:00:00,
2013-09-14 23:15:00,51.9,50.0,-100.00,NNW,327,1.3,4.5,93,0.00,,,-99.99,HOBO +U30 +Weather +,2013-09-15 03:15:00,
2013-09-14 23:30:00,50.9,49.2,-100.00,NNW,329,1.3,4.9,94,0.00,,,-99.99,HOBO +U30 +Weather +,2013-09-15 03:30:00,
2013-09-14 23:45:00,50.2,48.9,-100.00,NNW,348,0.4,3.8,95,0.00,,,-99.99,HOBO +U30 +Weather +,2013-09-15 03:45:00,